Time;durP1;ratioP1;P1;durP2;ratioP2;P2;SDS_P1;SDS_P2;PMS_P1;PMS_P2;Temp;Humidity;BMP_temperature;BMP_pressure;BME280_temperature;BME280_humidity;BME280_pressure;Samples;Min_cycle;Max_cycle;Signal;HPM_P1;HPM_P2
2022/05/15 00:01:01;;;;;;;9.18;4.25;;;10.50;99.90;;;;;;5027198;28;20675;-65
2022/05/15 00:03:27;;;;;;;9.00;3.97;;;10.50;99.90;;;;;;5028500;28;20029;-64
2022/05/15 00:06:03;;;;;;;7.07;4.03;;;10.50;99.90;;;;;;5030422;28;20029;-66
2022/05/15 00:08:31;;;;;;;8.43;4.18;;;10.50;99.90;;;;;;5029539;28;20116;-65
2022/05/15 00:10:58;;;;;;;7.43;4.00;;;10.50;99.90;;;;;;5028968;28;20033;-65
2022/05/15 00:13:25;;;;;;;6.28;3.92;;;10.50;99.90;;;;;;5031381;28;20079;-64
2022/05/15 00:15:51;;;;;;;9.15;4.20;;;10.40;99.90;;;;;;5029869;28;20037;-64
2022/05/15 00:18:18;;;;;;;9.00;4.70;;;10.20;99.90;;;;;;5030578;28;20025;-65
2022/05/15 00:20:44;;;;;;;10.75;4.57;;;10.10;99.90;;;;;;5030864;28;20036;-64
2022/05/15 00:23:11;;;;;;;12.60;4.95;;;10.10;99.90;;;;;;5029312;28;20033;-64
2022/05/15 00:25:38;;;;;;;12.23;4.55;;;10.00;99.90;;;;;;5030070;28;20044;-64
2022/05/15 00:28:04;;;;;;;8.77;4.50;;;10.10;99.90;;;;;;5029326;28;20083;-65
2022/05/15 00:30:31;;;;;;;8.98;4.20;;;10.10;99.90;;;;;;5029854;28;20045;-64
2022/05/15 00:32:57;;;;;;;9.85;4.75;;;10.20;99.90;;;;;;5030948;28;20036;-64
2022/05/15 00:35:23;;;;;;;10.23;4.40;;;10.20;99.90;;;;;;5030054;28;20034;-64
2022/05/15 00:37:49;;;;;;;8.60;4.18;;;10.00;99.90;;;;;;5029741;28;20459;-66
2022/05/15 00:40:17;;;;;;;10.40;4.97;;;10.00;99.90;;;;;;5030385;28;20132;-64
2022/05/15 00:42:44;;;;;;;8.43;4.13;;;9.90;99.90;;;;;;5029011;28;20028;-65
2022/05/15 00:45:11;;;;;;;11.20;4.55;;;9.90;99.90;;;;;;5012581;28;20041;-64
2022/05/15 00:47:37;;;;;;;7.85;4.18;;;9.90;99.90;;;;;;5028007;28;20462;-65
2022/05/15 00:50:06;;;;;;;7.85;4.28;;;9.70;99.90;;;;;;5030886;28;20075;-64
2022/05/15 00:52:34;;;;;;;8.70;4.10;;;9.50;99.90;;;;;;5030084;28;20038;-65
2022/05/15 00:55:27;;;;;;;8.57;4.18;;;9.50;99.90;;;;;;5028680;28;20057;-64
2022/05/15 00:57:58;;;;;;;10.27;4.57;;;9.50;99.90;;;;;;5028026;28;20056;-64
2022/05/15 01:00:28;;;;;;;6.97;4.07;;;9.60;99.90;;;;;;5027132;28;20037;-65
2022/05/15 01:03:15;;;;;;;8.38;4.60;;;9.70;99.90;;;;;;5029022;28;20071;-65
2022/05/15 01:05:46;;;;;;;7.72;3.80;;;9.80;99.90;;;;;;5029104;28;20045;-65
2022/05/15 01:08:12;;;;;;;7.78;4.10;;;9.60;99.90;;;;;;5029443;28;20053;-65
2022/05/15 01:10:48;;;;;;;11.48;4.40;;;9.60;99.90;;;;;;5028392;28;20452;-64
2022/05/15 01:13:15;;;;;;;6.72;3.90;;;9.60;99.90;;;;;;5030340;28;20075;-63
2022/05/15 01:15:43;;;;;;;8.60;4.35;;;9.60;99.90;;;;;;5029923;28;20118;-65
2022/05/15 01:18:09;;;;;;;8.90;4.72;;;9.50;99.90;;;;;;5027100;28;20138;-65
2022/05/15 01:20:37;;;;;;;11.32;4.45;;;9.40;99.90;;;;;;5029676;28;20374;-64
2022/05/15 01:23:03;;;;;;;10.88;5.05;;;9.40;99.90;;;;;;5029430;28;20454;-64
2022/05/15 01:25:32;;;;;;;10.75;4.60;;;9.30;99.90;;;;;;5028809;28;20078;-63
2022/05/15 01:28:12;;;;;;;12.80;5.10;;;9.30;99.90;;;;;;5027446;28;20029;-64
2022/05/15 01:30:41;;;;;;;9.23;4.95;;;9.30;99.90;;;;;;5022207;28;20109;-64
2022/05/15 01:33:07;;;;;;;10.70;4.73;;;9.40;99.90;;;;;;5029762;28;20087;-65
2022/05/15 01:35:33;;;;;;;7.68;4.53;;;9.30;99.90;;;;;;5027781;28;20537;-65
2022/05/15 01:37:59;;;;;;;13.63;4.88;;;9.40;99.90;;;;;;5027219;28;20021;-65
2022/05/15 01:40:25;;;;;;;10.15;4.40;;;9.40;99.90;;;;;;5028003;28;20029;-65
2022/05/15 01:42:51;;;;;;;7.90;4.32;;;9.40;99.90;;;;;;5027740;28;20466;-65
2022/05/15 01:45:17;;;;;;;8.27;4.68;;;9.40;99.90;;;;;;5028777;28;20053;-64
2022/05/15 01:47:43;;;;;;;10.35;4.93;;;9.40;99.90;;;;;;5028036;28;20108;-64
2022/05/15 01:50:11;;;;;;;10.05;4.95;;;9.40;99.90;;;;;;5027727;28;20038;-65
2022/05/15 01:52:37;;;;;;;9.98;4.82;;;9.40;99.90;;;;;;5021257;28;20045;-64
2022/05/15 01:55:03;;;;;;;13.48;4.85;;;9.40;99.90;;;;;;5029043;28;20041;-64
2022/05/15 01:57:29;;;;;;;6.88;3.92;;;9.40;99.90;;;;;;5027568;28;20034;-64
2022/05/15 01:59:54;;;;;;;8.30;4.57;;;9.30;99.90;;;;;;5027773;28;20037;-64
2022/05/15 02:02:20;;;;;;;9.05;4.90;;;9.10;99.90;;;;;;5028890;28;20029;-65
2022/05/15 02:04:46;;;;;;;14.13;4.93;;;9.00;99.90;;;;;;5028629;28;20466;-65
2022/05/15 02:07:11;;;;;;;9.00;4.50;;;9.00;99.90;;;;;;5027880;28;20065;-64
2022/05/15 02:09:37;;;;;;;9.13;4.63;;;8.90;99.90;;;;;;5028229;28;20037;-64
2022/05/15 02:12:04;;;;;;;8.95;4.88;;;8.80;99.90;;;;;;5028341;28;20033;-65
2022/05/15 02:14:29;;;;;;;9.57;4.70;;;8.80;99.90;;;;;;5028047;28;20152;-64
2022/05/15 02:16:55;;;;;;;7.53;4.43;;;8.90;99.90;;;;;;5026563;28;20132;-64
2022/05/15 02:19:21;;;;;;;9.20;4.63;;;8.80;99.90;;;;;;5029936;28;20029;-64
2022/05/15 02:21:47;;;;;;;9.80;4.90;;;8.80;99.90;;;;;;5026532;28;20037;-64
2022/05/15 02:24:13;;;;;;;10.43;4.60;;;8.80;99.90;;;;;;5028152;28;20044;-64
2022/05/15 02:26:39;;;;;;;8.93;4.72;;;8.70;99.90;;;;;;5028035;28;20037;-65
2022/05/15 02:29:06;;;;;;;8.98;4.75;;;8.70;99.90;;;;;;5024577;28;20458;-64
2022/05/15 02:31:32;;;;;;;9.38;4.70;;;8.70;99.90;;;;;;5022488;28;20033;-64
2022/05/15 02:33:58;;;;;;;10.98;5.20;;;8.70;99.90;;;;;;5027999;28;20052;-64
2022/05/15 02:36:25;;;;;;;9.50;4.97;;;8.70;99.90;;;;;;5027603;28;20049;-64
2022/05/15 02:38:50;;;;;;;9.45;5.30;;;8.70;99.90;;;;;;5029006;28;20111;-64
2022/05/15 02:41:16;;;;;;;13.35;5.13;;;8.70;99.90;;;;;;5025451;28;20458;-64
2022/05/15 02:43:42;;;;;;;11.95;5.07;;;8.60;99.90;;;;;;5027665;28;20071;-63
2022/05/15 02:46:08;;;;;;;9.43;4.90;;;8.60;99.90;;;;;;5027599;28;20090;-64
2022/05/15 02:51:18;;;;;;;10.52;4.50;;;8.40;99.90;;;;;;5025961;28;20044;-66
2022/05/15 02:53:45;;;;;;;9.93;4.78;;;8.50;99.90;;;;;;5027863;28;20037;-65
2022/05/15 02:56:16;;;;;;;10.18;5.35;;;8.50;99.90;;;;;;5027652;28;20095;-64
2022/05/15 02:58:42;;;;;;;8.13;4.68;;;8.40;99.90;;;;;;5028012;28;20446;-65
2022/05/15 03:01:08;;;;;;;9.70;4.88;;;8.40;99.90;;;;;;5027196;28;20099;-64
2022/05/15 03:03:34;;;;;;;10.80;4.97;;;8.40;99.90;;;;;;5028334;28;20025;-63
2022/05/15 03:06:00;;;;;;;11.82;4.88;;;8.50;99.90;;;;;;5027439;28;20037;-64
2022/05/15 03:08:26;;;;;;;10.88;5.00;;;8.40;99.90;;;;;;5028648;28;20040;-64
2022/05/15 03:10:51;;;;;;;9.73;4.60;;;8.40;99.90;;;;;;5028332;28;20057;-64
2022/05/15 03:13:17;;;;;;;7.80;4.13;;;8.40;99.90;;;;;;5025979;28;20026;-65
2022/05/15 03:15:43;;;;;;;8.05;4.80;;;8.50;99.90;;;;;;5028115;28;20037;-64
2022/05/15 03:18:09;;;;;;;8.15;4.80;;;8.40;99.90;;;;;;5026943;28;20033;-65
2022/05/15 03:20:35;;;;;;;9.13;5.10;;;8.30;99.90;;;;;;5027163;28;20112;-65
2022/05/15 03:23:00;;;;;;;9.48;4.38;;;8.20;99.90;;;;;;5027586;28;20117;-64
2022/05/15 03:25:27;;;;;;;10.68;5.25;;;8.20;99.90;;;;;;5027801;28;20041;-64
2022/05/15 03:27:54;;;;;;;10.50;4.85;;;8.20;99.90;;;;;;5026987;28;20037;-64
2022/05/15 03:30:20;;;;;;;10.07;4.95;;;8.20;99.90;;;;;;5026564;28;20095;-64
2022/05/15 03:32:45;;;;;;;9.35;5.03;;;8.20;99.90;;;;;;5028221;28;20030;-64
2022/05/15 03:35:11;;;;;;;12.10;5.07;;;8.20;99.90;;;;;;5026825;28;20072;-64
2022/05/15 03:37:38;;;;;;;10.05;4.43;;;8.30;99.90;;;;;;5028732;28;20030;-64
2022/05/15 03:40:06;;;;;;;10.80;4.93;;;8.20;99.90;;;;;;5008722;28;20650;-64
2022/05/15 03:42:32;;;;;;;12.63;4.85;;;8.20;99.90;;;;;;5029042;28;20454;-65
2022/05/15 03:44:58;;;;;;;8.48;4.53;;;8.10;99.90;;;;;;5025456;28;20109;-64
2022/05/15 03:47:24;;;;;;;9.68;4.72;;;8.10;99.90;;;;;;5006942;28;20128;-64
2022/05/15 03:49:50;;;;;;;9.88;5.03;;;8.10;99.90;;;;;;5025856;28;20029;-65
2022/05/15 03:52:16;;;;;;;7.68;4.53;;;8.00;99.90;;;;;;5025955;28;20021;-64
2022/05/15 03:54:46;;;;;;;9.27;4.70;;;8.00;99.90;;;;;;5027452;28;20048;-64
2022/05/15 03:57:12;;;;;;;7.40;4.63;;;8.10;99.90;;;;;;5027491;28;20473;-64
2022/05/15 03:59:40;;;;;;;8.25;4.55;;;8.20;99.90;;;;;;5029492;28;20034;-64
2022/05/15 04:02:07;;;;;;;12.27;4.80;;;8.10;99.90;;;;;;5030879;28;20045;-64
2022/05/15 04:04:33;;;;;;;10.88;4.80;;;8.10;99.90;;;;;;5029548;28;20097;-65
2022/05/15 04:07:00;;;;;;;8.18;4.45;;;8.10;99.90;;;;;;5031474;28;20029;-64
2022/05/15 04:09:27;;;;;;;10.52;4.93;;;8.00;99.90;;;;;;5029274;28;20397;-64
2022/05/15 04:11:53;;;;;;;7.80;4.78;;;8.00;99.90;;;;;;5031185;28;20112;-65
2022/05/15 04:14:19;;;;;;;7.18;4.93;;;7.90;99.90;;;;;;5026552;28;20137;-64
2022/05/15 04:16:45;;;;;;;11.38;4.90;;;7.90;99.90;;;;;;5026277;28;20051;-64
2022/05/15 04:19:10;;;;;;;8.55;4.80;;;8.10;99.90;;;;;;5029560;28;20037;-64
2022/05/15 04:21:37;;;;;;;9.10;4.68;;;8.20;99.90;;;;;;5026644;28;20092;-63
2022/05/15 04:24:08;;;;;;;9.07;4.72;;;8.30;99.90;;;;;;5033655;28;20568;-63
2022/05/15 04:26:34;;;;;;;;;;;8.40;99.90;;;;;;5032769;28;20071;-65
2022/05/15 04:29:00;;;;;;;7.63;4.40;;;8.50;99.90;;;;;;5031376;28;20016;-65
2022/05/15 04:31:27;;;;;;;9.90;4.68;;;8.70;99.90;;;;;;5029846;28;20112;-64
2022/05/15 04:33:52;;;;;;;13.27;4.93;;;8.80;99.90;;;;;;5027164;28;20030;-64
2022/05/15 04:36:18;;;;;;;9.93;5.15;;;9.10;99.90;;;;;;5028827;28;20052;-65
2022/05/15 04:38:44;;;;;;;10.65;5.00;;;9.20;99.90;;;;;;5031233;28;20049;-65
2022/05/15 04:41:09;;;;;;;7.20;4.28;;;9.30;99.90;;;;;;5029830;28;20122;-64
2022/05/15 04:43:35;;;;;;;8.73;4.53;;;9.50;99.90;;;;;;5030535;28;20075;-64
2022/05/15 04:46:03;;;;;;;10.25;4.70;;;9.70;99.90;;;;;;5030069;28;20052;-64
2022/05/15 04:48:29;;;;;;;8.68;4.63;;;9.90;99.90;;;;;;5028478;28;20536;-64
2022/05/15 04:50:55;;;;;;;13.13;4.53;;;10.00;99.90;;;;;;5017813;28;20042;-64
2022/05/15 04:53:21;;;;;;;9.40;4.78;;;10.00;99.90;;;;;;5011011;28;20037;-65
2022/05/15 04:55:46;;;;;;;8.10;5.03;;;10.00;99.90;;;;;;5028627;28;20041;-64
2022/05/15 04:58:12;;;;;;;6.43;4.25;;;10.20;99.90;;;;;;5030912;28;20471;-64
2022/05/15 05:00:38;;;;;;;10.70;4.72;;;10.40;99.90;;;;;;5030939;28;20124;-64
2022/05/15 05:03:04;;;;;;;9.68;4.63;;;10.40;99.90;;;;;;5028087;28;20025;-64
2022/05/15 05:05:30;;;;;;;10.15;4.63;;;10.40;99.90;;;;;;5030314;28;20041;-65
2022/05/15 05:07:55;;;;;;;8.65;4.25;;;10.60;99.90;;;;;;5013505;28;20045;-64
2022/05/15 05:10:21;;;;;;;7.80;4.55;;;10.60;99.90;;;;;;5028244;28;20660;-64
2022/05/15 05:12:47;;;;;;;7.50;4.80;;;10.80;99.90;;;;;;5029122;28;20029;-64
2022/05/15 05:15:13;;;;;;;9.25;4.40;;;10.80;99.90;;;;;;5025678;28;20065;-65
2022/05/15 05:17:43;;;;;;;12.38;5.03;;;10.90;99.90;;;;;;5025797;28;20028;-65
2022/05/15 05:20:10;;;;;;;10.35;4.75;;;11.10;99.90;;;;;;5030142;28;20037;-64
2022/05/15 05:22:35;;;;;;;9.63;4.43;;;11.20;99.90;;;;;;5028339;28;20029;-64
2022/05/15 05:25:02;;;;;;;8.52;4.53;;;11.20;99.90;;;;;;5030368;28;20417;-64
2022/05/15 05:27:27;;;;;;;9.20;4.97;;;11.30;99.90;;;;;;5026480;28;20026;-66
2022/05/15 05:29:53;;;;;;;7.03;4.63;;;11.40;99.90;;;;;;5029379;28;20041;-64
2022/05/15 05:32:18;;;;;;;6.78;4.65;;;11.60;99.90;;;;;;5028290;28;20029;-66
2022/05/15 05:34:44;;;;;;;7.35;4.53;;;11.70;99.90;;;;;;5028782;28;20804;-64
2022/05/15 05:37:10;;;;;;;11.13;5.43;;;11.80;99.90;;;;;;5028837;28;20044;-65
2022/05/15 05:39:35;;;;;;;10.98;5.15;;;12.00;99.90;;;;;;5027568;28;20050;-64
2022/05/15 05:42:01;;;;;;;9.90;5.07;;;12.20;99.90;;;;;;5029504;28;20485;-64
2022/05/15 05:44:27;;;;;;;13.75;4.68;;;12.30;99.90;;;;;;5023939;28;20025;-65
2022/05/15 05:46:52;;;;;;;7.93;4.78;;;12.40;99.90;;;;;;5028554;28;20504;-66
2022/05/15 05:49:18;;;;;;;9.57;5.18;;;12.50;99.90;;;;;;5024882;28;20033;-65
2022/05/15 05:51:45;;;;;;;9.32;4.57;;;12.60;99.90;;;;;;5025632;28;20040;-65
2022/05/15 05:54:11;;;;;;;8.65;4.40;;;12.70;99.90;;;;;;5028312;28;20064;-65
2022/05/15 05:56:37;;;;;;;7.25;4.30;;;12.80;99.90;;;;;;5029300;28;20037;-64
2022/05/15 05:59:02;;;;;;;11.18;5.00;;;13.00;99.90;;;;;;5029971;28;20022;-65
2022/05/15 06:01:28;;;;;;;9.38;4.50;;;13.00;99.90;;;;;;5026701;28;20044;-65
2022/05/15 06:06:38;;;;;;;7.25;4.25;;;13.20;99.90;;;;;;5029067;28;20032;-65
2022/05/15 06:09:04;;;;;;;12.18;5.20;;;13.40;99.90;;;;;;5027577;28;20029;-65
2022/05/15 06:11:30;;;;;;;8.40;4.75;;;13.70;99.90;;;;;;5028135;28;20418;-66
2022/05/15 06:13:55;;;;;;;9.90;4.47;;;14.00;99.90;;;;;;5030071;28;20025;-65
2022/05/15 06:16:21;;;;;;;11.27;4.60;;;14.20;99.90;;;;;;5028059;28;20045;-66
2022/05/15 06:18:47;;;;;;;7.63;4.57;;;14.40;99.90;;;;;;5028933;28;20021;-65
2022/05/15 06:21:13;;;;;;;7.90;4.35;;;14.70;99.90;;;;;;5027161;28;20140;-66
2022/05/15 06:23:39;;;;;;;8.07;4.53;;;14.80;99.90;;;;;;5029832;28;20109;-65
2022/05/15 06:26:04;;;;;;;12.55;4.55;;;15.00;99.90;;;;;;5028866;28;20104;-65
2022/05/15 06:28:33;;;;;;;6.75;4.38;;;15.10;99.90;;;;;;5028412;28;20029;-65
2022/05/15 06:30:58;;;;;;;10.05;4.88;;;15.30;99.90;;;;;;5029077;28;20040;-66
2022/05/15 06:33:24;;;;;;;7.95;4.35;;;15.70;99.90;;;;;;5024159;28;20677;-67
2022/05/15 06:35:50;;;;;;;8.52;4.20;;;16.10;99.90;;;;;;5028748;28;20405;-66
2022/05/15 06:38:15;;;;;;;10.30;4.80;;;16.50;99.90;;;;;;5028283;28;20046;-65
2022/05/15 06:40:41;;;;;;;7.82;3.85;;;16.80;99.90;;;;;;5026113;28;20095;-65
2022/05/15 06:43:07;;;;;;;6.47;3.60;;;17.10;99.90;;;;;;5022750;28;20025;-66
2022/05/15 06:45:33;;;;;;;6.75;4.10;;;17.30;99.90;;;;;;5024819;28;20053;-65
2022/05/15 06:47:58;;;;;;;7.60;3.20;;;17.60;99.90;;;;;;5028238;28;20088;-65
2022/05/15 06:50:24;;;;;;;6.78;3.47;;;17.80;99.90;;;;;;5011155;28;20029;-65
2022/05/15 06:52:50;;;;;;;7.72;3.45;;;18.00;99.90;;;;;;5025911;28;20034;-65
2022/05/15 06:55:18;;;;;;;5.30;3.30;;;18.10;99.90;;;;;;5025306;28;20041;-65
2022/05/15 06:57:44;;;;;;;5.03;2.95;;;18.10;99.90;;;;;;5029295;28;20037;-65
2022/05/15 07:00:13;;;;;;;6.60;3.38;;;18.20;99.90;;;;;;5027558;28;20037;-64
2022/05/15 07:02:41;;;;;;;8.93;3.55;;;18.40;99.90;;;;;;5029281;28;20029;-66
2022/05/15 07:05:11;;;;;;;6.32;3.05;;;18.50;99.90;;;;;;5027090;28;20397;-65
2022/05/15 07:07:38;;;;;;;6.88;3.72;;;18.70;99.90;;;;;;5028806;28;20068;-65
2022/05/15 07:10:04;;;;;;;10.25;3.30;;;18.90;99.90;;;;;;5027688;28;20049;-65
2022/05/15 07:12:30;;;;;;;5.13;3.50;;;19.00;99.90;;;;;;5028260;28;20029;-64
2022/05/15 07:14:56;;;;;;;5.75;3.13;;;19.20;99.90;;;;;;5024841;28;20068;-66
2022/05/15 07:17:21;;;;;;;6.78;2.90;;;19.30;99.90;;;;;;5025527;28;20091;-67
2022/05/15 07:19:47;;;;;;;6.50;3.45;;;19.40;99.90;;;;;;5027144;28;20083;-65
2022/05/15 07:22:13;;;;;;;5.57;2.80;;;19.50;99.90;;;;;;5027300;28;20041;-65
2022/05/15 07:24:40;;;;;;;10.25;3.35;;;19.60;99.90;;;;;;5021907;28;20386;-66
2022/05/15 07:27:09;;;;;;;5.18;3.10;;;19.70;99.90;;;;;;5019410;28;20042;-64
2022/05/15 07:29:36;;;;;;;7.17;3.10;;;19.80;99.90;;;;;;5027492;28;20033;-67
2022/05/15 07:32:06;;;;;;;9.10;2.65;;;20.00;99.90;;;;;;5026397;28;20052;-66
2022/05/15 07:34:33;;;;;;;7.32;3.08;;;20.30;99.90;;;;;;5028389;28;20461;-66
2022/05/15 07:36:59;;;;;;;7.45;2.85;;;20.40;99.90;;;;;;5030658;28;20578;-66
2022/05/15 07:39:25;;;;;;;7.15;3.25;;;20.50;99.90;;;;;;5030132;28;20053;-67
2022/05/15 07:41:51;;;;;;;7.75;3.13;;;20.60;99.90;;;;;;5031043;28;20037;-65
2022/05/15 07:44:18;;;;;;;5.75;2.85;;;20.70;99.90;;;;;;5027926;28;20033;-65
2022/05/15 07:46:43;;;;;;;8.07;3.03;;;20.60;99.90;;;;;;5028548;28;20370;-65
2022/05/15 07:49:11;;;;;;;9.38;3.15;;;20.70;99.90;;;;;;5030451;28;20032;-66
2022/05/15 07:51:41;;;;;;;4.97;2.65;;;20.90;99.90;;;;;;5029725;28;20025;-66
2022/05/15 07:54:07;;;;;;;6.50;2.88;;;20.90;99.90;;;;;;5026944;28;20091;-66
2022/05/15 07:56:33;;;;;;;9.27;3.00;;;21.00;99.90;;;;;;5028714;28;20044;-66
2022/05/15 07:58:58;;;;;;;10.30;2.90;;;21.20;99.90;;;;;;5029332;28;20427;-67
2022/05/15 08:01:24;;;;;;;4.97;2.85;;;21.30;99.90;;;;;;5031052;28;20037;-67
2022/05/15 08:03:50;;;;;;;6.22;2.90;;;21.50;99.90;;;;;;5029281;28;20037;-67
2022/05/15 08:09:04;;;;;;;5.72;3.17;;;21.40;99.00;;;;;;5027518;28;20104;-65
2022/05/15 08:11:31;;;;;;;4.95;2.70;;;21.40;99.70;;;;;;5024484;28;20120;-66
2022/05/15 08:13:58;;;;;;;6.50;2.63;;;21.70;99.90;;;;;;5029291;28;20390;-65
2022/05/15 08:16:24;;;;;;;7.40;3.10;;;22.00;99.30;;;;;;5028003;28;20410;-66
2022/05/15 08:24:20;;;;;;;3.45;2.47;;;22.30;94.30;;;;;;5026083;28;20148;-64
2022/05/15 08:26:46;;;;;;;5.15;2.67;;;22.20;94.00;;;;;;5009039;28;20037;-65
2022/05/15 08:29:12;;;;;;;3.60;2.40;;;22.10;92.40;;;;;;5030455;28;20036;-64
2022/05/15 08:31:39;;;;;;;3.70;2.13;;;22.10;91.60;;;;;;5021059;28;20129;-64
2022/05/15 08:34:06;;;;;;;3.70;2.20;;;22.30;93.60;;;;;;5028637;28;20041;-65
2022/05/15 08:36:32;;;;;;;6.45;2.35;;;22.50;92.40;;;;;;5028551;28;20041;-64
2022/05/15 08:38:58;;;;;;;8.82;2.35;;;22.70;92.20;;;;;;5031284;28;20401;-64
2022/05/15 08:41:38;;;;;;;4.20;2.45;;;22.70;90.90;;;;;;5029642;28;20036;-64
2022/05/15 08:44:21;;;;;;;6.05;2.55;;;22.90;89.30;;;;;;5031864;28;20055;-64
2022/05/15 08:47:20;;;;;;;7.95;2.20;;;23.10;90.90;;;;;;5029949;28;20048;-64
2022/05/15 08:49:57;;;;;;;6.50;2.28;;;23.40;85.80;;;;;;5019497;28;20045;-65
2022/05/15 08:52:51;;;;;;;6.07;2.20;;;23.50;83.70;;;;;;5029975;28;20122;-65
2022/05/15 08:55:28;;;;;;;4.55;1.75;;;23.80;73.20;;;;;;5028576;28;20049;-64
2022/05/15 08:58:02;;;;;;;5.18;1.80;;;23.80;74.20;;;;;;5030123;28;20064;-64
2022/05/15 09:00:42;;;;;;;5.40;2.33;;;23.80;67.20;;;;;;5030748;28;20032;-64
2022/05/15 09:03:23;;;;;;;5.45;1.83;;;23.50;70.80;;;;;;5029563;28;20037;-65
2022/05/15 09:06:01;;;;;;;3.97;1.80;;;23.60;67.80;;;;;;5031417;28;20091;-64
2022/05/15 09:08:46;;;;;;;3.53;1.77;;;23.80;66.90;;;;;;5029065;28;20042;-65
2022/05/15 09:11:15;;;;;;;6.53;2.40;;;23.90;66.80;;;;;;5031366;28;20079;-65
2022/05/15 09:13:51;;;;;;;8.17;2.20;;;24.00;69.20;;;;;;5030446;28;20044;-64
2022/05/15 09:16:24;;;;;;;2.20;1.77;;;24.20;65.40;;;;;;5026879;28;20033;-64
2022/05/15 09:18:50;;;;;;;5.65;1.77;;;24.10;67.20;;;;;;5020312;28;20036;-64
2022/05/15 09:21:17;;;;;;;3.47;1.98;;;24.00;66.20;;;;;;5029960;28;20029;-63
2022/05/15 09:23:50;;;;;;;3.85;1.90;;;23.80;67.70;;;;;;5030120;28;20060;-65
2022/05/15 09:26:20;;;;;;;4.22;1.80;;;24.20;66.70;;;;;;5029110;28;20033;-63
2022/05/15 09:28:49;;;;;;;8.77;2.17;;;24.50;69.00;;;;;;5029856;28;20033;-65
2022/05/15 09:31:23;;;;;;;6.45;2.20;;;24.70;64.10;;;;;;5030009;28;20087;-64
2022/05/15 09:33:55;;;;;;;3.35;2.00;;;24.80;64.80;;;;;;5027916;28;20064;-65
2022/05/15 09:36:36;;;;;;;4.95;2.03;;;24.90;62.70;;;;;;5028338;28;20485;-64
2022/05/15 09:39:35;;;;;;;7.78;1.98;;;24.40;62.00;;;;;;5030235;28;20401;-64
2022/05/15 09:45:07;;;;;;;7.88;2.00;;;24.20;64.50;;;;;;5020205;28;20060;-64
2022/05/15 09:47:37;;;;;;;5.25;2.53;;;24.50;64.80;;;;;;5029511;28;20033;-65
2022/05/15 09:50:04;;;;;;;6.57;2.47;;;24.90;68.40;;;;;;5030285;28;20030;-65
2022/05/15 09:52:36;;;;;;;5.10;2.00;;;25.10;61.90;;;;;;5011965;28;20102;-64
2022/05/15 09:55:19;;;;;;;4.93;2.00;;;25.10;61.20;;;;;;5030411;28;20104;-64
2022/05/15 09:58:18;;;;;;;6.35;2.42;;;25.00;62.60;;;;;;5029041;28;20033;-64
2022/05/15 10:00:44;;;;;;;4.72;1.65;;;24.80;61.40;;;;;;5028412;28;20113;-64
2022/05/15 10:03:23;;;;;;;6.32;2.05;;;24.70;62.70;;;;;;5028199;28;20104;-64
2022/05/15 10:06:03;;;;;;;7.18;2.30;;;25.10;62.80;;;;;;5028976;28;20037;-64
2022/05/15 10:08:30;;;;;;;4.28;2.25;;;25.40;64.60;;;;;;5025808;28;20124;-64
2022/05/15 10:11:06;;;;;;;5.05;3.00;;;25.30;61.70;;;;;;5019188;28;20022;-64
2022/05/15 10:13:45;;;;;;;5.70;2.28;;;25.40;61.90;;;;;;5029343;28;20029;-64
2022/05/15 10:16:33;;;;;;;3.83;1.90;;;25.40;59.50;;;;;;5028917;28;20116;-64
2022/05/15 10:19:08;;;;;;;5.32;2.28;;;25.50;61.50;;;;;;5030175;28;20033;-65
2022/05/15 10:21:50;;;;;;;5.65;1.95;;;25.60;61.50;;;;;;5028994;28;20512;-64
2022/05/15 10:24:34;;;;;;;6.13;2.50;;;25.30;58.10;;;;;;5027660;28;20777;-64
2022/05/15 10:27:15;;;;;;;7.00;2.35;;;25.20;58.40;;;;;;5028314;28;20405;-64
2022/05/15 10:29:49;;;;;;;3.58;2.00;;;25.30;58.00;;;;;;5027330;28;20780;-64
2022/05/15 10:32:29;;;;;;;4.05;2.10;;;25.30;56.20;;;;;;5027211;28;20512;-65
2022/05/15 10:34:56;;;;;;;2.83;2.00;;;25.90;58.80;;;;;;5019323;28;20033;-64
2022/05/15 10:37:36;;;;;;;5.55;2.20;;;26.00;57.60;;;;;;5024496;28;20061;-64
2022/05/15 10:40:14;;;;;;;5.68;2.08;;;25.50;55.50;;;;;;5023472;28;20060;-75
2022/05/15 10:42:49;;;;;;;3.60;1.80;;;25.60;58.30;;;;;;5028026;28;20053;-74
2022/05/15 10:45:36;;;;;;;4.28;1.90;;;25.70;56.80;;;;;;5026004;28;20044;-72
2022/05/15 10:48:32;;;;;;;6.25;1.90;;;25.80;57.10;;;;;;5027425;28;20060;-77
2022/05/15 10:51:32;;;;;;;6.18;2.22;;;26.10;55.40;;;;;;5024804;28;20395;-72
2022/05/15 10:57:22;;;;;;;6.55;2.08;;;26.40;57.40;;;;;;5028015;28;20072;-75
2022/05/15 11:00:33;;;;;;;4.15;2.00;;;26.30;55.40;;;;;;5026632;28;20529;-74
2022/05/15 11:03:14;;;;;;;6.40;2.03;;;26.20;55.80;;;;;;5026854;28;20025;-76
2022/05/15 11:05:57;;;;;;;4.45;2.05;;;26.50;58.30;;;;;;5024930;28;20048;-74
2022/05/15 11:08:43;;;;;;;3.58;1.95;;;26.80;54.80;;;;;;5011632;28;20476;-69
2022/05/15 11:11:32;;;;;;;4.50;2.03;;;26.40;53.80;;;;;;5031528;28;20040;-73
2022/05/15 11:14:04;;;;;;;4.55;2.25;;;26.00;54.70;;;;;;5016663;28;20482;-75
2022/05/15 11:16:33;;;;;;;3.10;2.00;;;25.80;53.30;;;;;;5029457;28;20041;-74
2022/05/15 11:19:35;;;;;;;3.50;1.92;;;26.10;54.90;;;;;;5030938;28;20037;-72
2022/05/15 11:22:19;;;;;;;6.45;2.00;;;26.50;53.40;;;;;;5027928;28;20049;-75
2022/05/15 11:25:08;;;;;;;5.95;1.90;;;26.20;52.50;;;;;;5030267;28;20037;-73
2022/05/15 11:27:57;;;;;;;4.35;2.00;;;26.10;51.90;;;;;;5020670;28;20052;-74
2022/05/15 11:30:31;;;;;;;5.72;2.03;;;26.40;54.50;;;;;;5033243;28;20029;-73
2022/05/15 11:33:16;;;;;;;4.78;2.10;;;26.30;52.30;;;;;;5030023;28;20025;-73
2022/05/15 11:36:09;;;;;;;7.47;2.15;;;26.10;53.50;;;;;;5012278;28;20061;-75
2022/05/15 11:38:58;;;;;;;8.75;2.20;;;26.40;54.20;;;;;;5027909;28;20099;-71
2022/05/15 11:42:08;;;;;;;4.32;2.08;;;26.50;54.10;;;;;;5022360;28;20104;-70
2022/05/15 11:44:42;;;;;;;4.95;2.13;;;26.50;52.60;;;;;;5001513;28;20045;-72
2022/05/15 11:47:32;;;;;;;5.20;2.13;;;26.20;53.50;;;;;;5031915;28;20135;-72
2022/05/15 11:50:01;;;;;;;3.25;1.70;;;26.20;52.80;;;;;;5032687;28;20029;-75
2022/05/15 11:53:04;;;;;;;4.68;2.03;;;26.30;53.30;;;;;;5031828;28;20026;-73
2022/05/15 11:55:35;;;;;;;6.00;1.90;;;26.40;51.40;;;;;;5031848;28;20056;-75
2022/05/15 11:58:20;;;;;;;4.10;1.98;;;26.50;54.20;;;;;;5029428;28;20708;-78
2022/05/15 12:01:24;;;;;;;2.60;1.65;;;26.80;52.50;;;;;;5011771;28;20045;-75
2022/05/15 12:03:59;;;;;;;5.70;2.00;;;26.80;51.60;;;;;;4988166;28;20292;-74
2022/05/15 12:06:31;;;;;;;6.95;2.10;;;26.60;52.30;;;;;;5029017;28;20041;-71
2022/05/15 12:09:28;;;;;;;3.47;1.92;;;26.30;51.80;;;;;;5029875;28;20057;-74
2022/05/15 12:11:57;;;;;;;5.38;2.20;;;26.30;51.80;;;;;;5005866;28;20037;-74
2022/05/15 12:14:26;;;;;;;8.45;2.35;;;26.30;50.90;;;;;;5022722;28;20040;-73
2022/05/15 12:16:54;;;;;;;6.40;2.30;;;26.70;51.80;;;;;;5024264;28;20482;-74
2022/05/15 12:19:32;;;;;;;2.80;1.73;;;27.20;51.70;;;;;;5020847;28;20032;-74
2022/05/15 12:22:01;;;;;;;4.43;1.80;;;27.50;53.80;;;;;;5022054;28;20037;-74
2022/05/15 12:24:32;;;;;;;6.40;2.27;;;27.40;50.30;;;;;;5028755;28;20087;-69
2022/05/15 12:27:10;;;;;;;5.57;1.85;;;27.10;51.40;;;;;;5024444;28;20044;-76
2022/05/15 12:30:11;;;;;;;4.85;1.90;;;27.40;51.40;;;;;;5020652;28;20033;-74
2022/05/15 12:32:42;;;;;;;4.05;2.00;;;27.90;57.30;;;;;;5020761;28;20113;-75
2022/05/15 12:35:21;;;;;;;;;;;28.10;50.70;;;;;;5023721;28;20025;-75
2022/05/15 12:38:10;;;;;;;5.03;1.92;;;28.00;50.40;;;;;;5023357;28;19908;-74
2022/05/15 12:40:59;;;;;;;5.40;2.05;;;27.60;48.60;;;;;;5026633;28;20045;-74
2022/05/15 12:43:40;;;;;;;5.50;2.35;;;27.20;49.00;;;;;;5022088;28;20075;-72
2022/05/15 12:46:07;;;;;;;6.15;2.13;;;27.20;50.30;;;;;;5023442;28;20029;-74
2022/05/15 12:48:37;;;;;;;3.90;2.10;;;27.30;51.00;;;;;;5020316;28;20038;-73
2022/05/15 12:51:09;;;;;;;3.63;1.95;;;27.50;49.40;;;;;;5023610;28;20026;-75
2022/05/15 12:53:44;;;;;;;3.83;2.05;;;27.40;50.10;;;;;;5020068;28;20524;-75
2022/05/15 12:56:17;;;;;;;3.83;2.05;;;27.30;48.40;;;;;;5025732;28;20044;-73
2022/05/15 12:58:48;;;;;;;5.07;1.70;;;27.40;49.70;;;;;;5021517;28;20060;-75
2022/05/15 13:01:16;;;;;;;8.00;1.88;;;27.50;49.10;;;;;;5021442;28;20038;-77
2022/05/15 13:03:49;;;;;;;4.53;2.03;;;27.50;51.50;;;;;;5022034;28;20033;-79
2022/05/15 13:06:19;;;;;;;3.60;1.77;;;27.30;49.60;;;;;;5027081;28;20079;-74
2022/05/15 13:08:50;;;;;;;4.25;1.83;;;27.10;49.20;;;;;;5018149;28;20091;-77
2022/05/15 13:11:24;;;;;;;7.63;2.28;;;27.20;49.10;;;;;;5021406;28;20029;-75
2022/05/15 13:13:54;;;;;;;7.30;1.88;;;27.10;49.50;;;;;;5022612;28;20028;-78
2022/05/15 13:16:23;;;;;;;5.45;2.25;;;27.20;49.70;;;;;;5027653;28;20040;-79
2022/05/15 13:18:53;;;;;;;3.30;1.90;;;27.40;52.70;;;;;;5026057;28;20725;-76
2022/05/15 13:21:25;;;;;;;4.85;1.83;;;27.50;52.50;;;;;;5029958;28;20037;-77
2022/05/15 13:23:52;;;;;;;3.47;1.92;;;27.70;51.10;;;;;;5023676;28;20823;-79
2022/05/15 13:26:26;;;;;;;7.43;2.20;;;27.80;50.00;;;;;;5023476;28;20034;-77